MDT,Max TemperatureF,Mean TemperatureF,Min TemperatureF,Max Dew PointF,MeanDew PointF,Min DewpointF,Max Humidity, Mean Humidity, Min Humidity, Max Sea Level PressureIn, Mean Sea Level PressureIn, Min Sea Level PressureIn, Max VisibilityMiles, Mean VisibilityMiles, Min VisibilityMiles, Max Wind SpeedMPH, Mean Wind SpeedMPH, Max Gust SpeedMPH,PrecipitationIn, CloudCover, Events, WindDirDegrees
2013-3-1,44,30,17,28,24,16,93,78,46,30.31,30.20,30.06,10,10,6,10,4,,0.00,2,,184
2013-3-2,48,38,28,37,32,27,93,77,62,30.11,30.02,29.87,10,10,6,14,5,,0.00,0,,334
2013-3-3,41,34,28,37,31,27,100,89,81,29.86,29.66,29.56,10,5,1,21,4,28,0.20,6,,334
2013-3-4,28,20,12,27,15,7,93,85,79,30.35,29.97,29.64,10,3,0,31,17,40,0.00,8,,330
2013-3-5,19,14,10,12,9,7,92,78,63,30.45,30.38,30.28,10,10,5,18,9,,0.00,6,,272
2013-3-6,28,17,6,21,14,1,100,81,73,30.28,30.10,29.93,10,10,10,18,7,20,0.00,3,,111
2013-3-7,33,26,19,27,21,16,93,83,75,30.16,30.02,29.90,10,10,10,12,8,,0.03,5,,221
2013-3-8,30,21,12,27,18,10,93,82,69,30.19,30.10,29.97,10,7,2,13,6,,0.00,6,,14
2013-3-9,30,22,14,28,20,9,100,82,69,30.27,30.07,29.92,10,8,2,20,7,24,0.00,4,,314
2013-3-10,35,22,8,27,17,5,92,80,60,30.30,30.17,29.87,10,8,5,9,3,,0.00,1,,181
2013-3-11,33,26,19,30,21,12,87,75,60,30.21,29.98,29.81,10,10,10,29,16,38,0.00,3,,296
2013-3-12,32,22,12,18,13,7,85,71,51,30.36,30.29,30.18,10,10,10,21,12,23,0.00,1,,296
2013-3-13,57,40,24,41,29,18,87,70,51,30.18,30.02,29.93,10,10,6,17,9,,0.00,2,,205
2013-3-14,55,42,28,43,32,25,93,81,58,30.11,30.08,30.05,10,9,5,16,7,21,0.00,3,,320
2013-3-15,30,22,12,27,20,9,86,82,73,30.20,30.00,29.90,10,8,3,16,10,21,0.00,8,,59
2013-3-16,17,14,10,12,8,3,79,74,68,30.21,30.14,29.94,10,9,2,16,8,20,0.00,7,,38
2013-3-17,30,18,6,25,16,0,93,81,67,29.93,29.66,29.47,10,7,1,29,13,40,0.00,8,,157
2013-3-18,24,12,1,16,5,-6,93,72,54,30.03,29.96,29.88,10,9,2,23,14,29,0.00,2,,280
2013-3-19,19,12,6,14,6,0,86,74,53,30.41,30.27,29.93,10,10,10,20,9,25,0.00,1,,307
2013-3-20,39,22,6,21,13,-2,100,65,42,30.36,30.09,29.87,10,10,10,21,6,25,0.00,2,,120
2013-3-21,28,24,21,23,15,7,93,68,47,29.91,29.85,29.79,10,7,0,17,12,26,0.00,8,,127
2013-3-22,26,14,3,23,15,-6,93,82,56,30.12,29.97,29.89,10,5,0,18,5,22,0.00,7,,353
2013-3-23,19,10,1,10,7,-6,92,79,66,30.28,30.22,30.11,10,10,5,18,9,22,0.00,2,,294
2013-3-24,21,14,3,16,9,-2,92,81,68,30.40,30.33,30.26,10,7,2,17,13,,0.00,7,,308
2013-3-25,24,10,-5,16,4,-13,100,79,64,30.40,30.33,30.20,10,10,5,9,2,,0.00,2,,177
2013-3-26,39,22,5,28,16,-8,100,76,52,30.19,30.10,30.05,10,10,10,12,4,,0.09,0,,200
2013-3-27,37,24,12,28,20,9,93,85,70,30.15,30.12,30.08,10,8,1,9,4,,0.04,1,,355
2013-3-28,41,30,19,34,25,18,93,85,75,30.18,30.15,30.12,7,4,2,10,7,,0.00,0,,5
2013-3-29,53,40,28,43,33,27,100,85,67,30.14,30.06,30.01,10,5,2,13,3,,0.00,4,,354
2013-3-30,46,36,26,39,30,21,100,80,65,30.14,30.10,30.06,10,8,0,23,5,28,0.00,1,,311
2013-3-31,30,26,19,25,20,12,93,75,59,30.28,30.18,30.08,10,8,1,13,7,17,0.02,5,,3